sensor_id;sensor_type;location;lat;lon;timestamp;P1;durP1;ratioP1;P2;durP2;ratioP2
23078;SDS011;11707;50.830;4.364;2023-03-19T00:00:00;6.07;;;2.58;;
23078;SDS011;11707;50.830;4.364;2023-03-19T00:02:28;5.22;;;2.28;;
23078;SDS011;11707;50.830;4.364;2023-03-19T00:04:54;4.00;;;2.33;;
23078;SDS011;11707;50.830;4.364;2023-03-19T00:07:22;3.38;;;2.00;;
23078;SDS011;11707;50.830;4.364;2023-03-19T00:09:48;5.82;;;2.65;;
23078;SDS011;11707;50.830;4.364;2023-03-19T00:12:14;4.45;;;2.00;;
23078;SDS011;11707;50.830;4.364;2023-03-19T00:14:40;3.17;;;2.35;;
23078;SDS011;11707;50.830;4.364;2023-03-19T00:17:06;3.95;;;2.53;;
23078;SDS011;11707;50.830;4.364;2023-03-19T00:19:32;6.63;;;2.95;;
23078;SDS011;11707;50.830;4.364;2023-03-19T00:21:57;6.30;;;2.70;;
23078;SDS011;11707;50.830;4.364;2023-03-19T00:24:23;4.45;;;2.72;;
23078;SDS011;11707;50.830;4.364;2023-03-19T00:26:49;5.88;;;3.53;;
23078;SDS011;11707;50.830;4.364;2023-03-19T00:29:15;3.67;;;2.75;;
23078;SDS011;11707;50.830;4.364;2023-03-19T00:31:41;5.93;;;3.28;;
23078;SDS011;11707;50.830;4.364;2023-03-19T00:34:10;8.70;;;2.88;;
23078;SDS011;11707;50.830;4.364;2023-03-19T00:36:37;6.03;;;2.75;;
23078;SDS011;11707;50.830;4.364;2023-03-19T00:39:05;6.03;;;2.90;;
23078;SDS011;11707;50.830;4.364;2023-03-19T00:41:31;5.05;;;2.78;;
23078;SDS011;11707;50.830;4.364;2023-03-19T00:43:57;9.80;;;3.33;;
23078;SDS011;11707;50.830;4.364;2023-03-19T00:46:23;6.15;;;2.78;;
23078;SDS011;11707;50.830;4.364;2023-03-19T00:48:50;8.10;;;3.67;;
23078;SDS011;11707;50.830;4.364;2023-03-19T00:51:19;5.80;;;3.67;;
23078;SDS011;11707;50.830;4.364;2023-03-19T00:53:45;5.95;;;3.55;;
23078;SDS011;11707;50.830;4.364;2023-03-19T00:56:11;9.00;;;3.53;;
23078;SDS011;11707;50.830;4.364;2023-03-19T00:58:38;5.72;;;3.28;;
23078;SDS011;11707;50.830;4.364;2023-03-19T01:01:05;5.40;;;3.22;;
23078;SDS011;11707;50.830;4.364;2023-03-19T01:03:32;8.57;;;3.60;;
23078;SDS011;11707;50.830;4.364;2023-03-19T01:05:57;5.18;;;3.90;;
23078;SDS011;11707;50.830;4.364;2023-03-19T01:08:23;5.85;;;3.42;;
23078;SDS011;11707;50.830;4.364;2023-03-19T01:10:49;4.93;;;3.28;;
23078;SDS011;11707;50.830;4.364;2023-03-19T01:13:15;8.00;;;3.78;;
23078;SDS011;11707;50.830;4.364;2023-03-19T01:15:41;6.35;;;3.40;;
23078;SDS011;11707;50.830;4.364;2023-03-19T01:18:08;6.45;;;4.25;;
23078;SDS011;11707;50.830;4.364;2023-03-19T01:20:36;9.02;;;3.95;;
23078;SDS011;11707;50.830;4.364;2023-03-19T01:23:06;6.15;;;3.70;;
23078;SDS011;11707;50.830;4.364;2023-03-19T01:25:32;5.10;;;3.83;;
23078;SDS011;11707;50.830;4.364;2023-03-19T01:28:01;6.22;;;4.13;;
23078;SDS011;11707;50.830;4.364;2023-03-19T01:30:27;5.25;;;3.92;;
23078;SDS011;11707;50.830;4.364;2023-03-19T01:32:53;6.13;;;4.15;;
23078;SDS011;11707;50.830;4.364;2023-03-19T01:35:18;6.10;;;3.92;;
23078;SDS011;11707;50.830;4.364;2023-03-19T01:37:47;5.43;;;4.10;;
23078;SDS011;11707;50.830;4.364;2023-03-19T01:40:15;4.75;;;3.72;;
23078;SDS011;11707;50.830;4.364;2023-03-19T01:42:56;7.88;;;3.90;;
23078;SDS011;11707;50.830;4.364;2023-03-19T01:45:41;7.43;;;4.15;;
23078;SDS011;11707;50.830;4.364;2023-03-19T01:48:15;5.53;;;4.13;;
23078;SDS011;11707;50.830;4.364;2023-03-19T01:50:48;6.82;;;4.07;;
23078;SDS011;11707;50.830;4.364;2023-03-19T01:53:17;8.38;;;4.75;;
23078;SDS011;11707;50.830;4.364;2023-03-19T01:55:50;9.75;;;4.70;;
23078;SDS011;11707;50.830;4.364;2023-03-19T01:58:19;5.15;;;4.40;;
23078;SDS011;11707;50.830;4.364;2023-03-19T02:00:45;7.28;;;5.15;;
23078;SDS011;11707;50.830;4.364;2023-03-19T02:03:11;7.22;;;4.97;;
23078;SDS011;11707;50.830;4.364;2023-03-19T02:05:37;8.23;;;5.25;;
23078;SDS011;11707;50.830;4.364;2023-03-19T02:08:06;6.47;;;4.63;;
23078;SDS011;11707;50.830;4.364;2023-03-19T02:10:34;8.77;;;4.93;;
23078;SDS011;11707;50.830;4.364;2023-03-19T02:13:01;7.28;;;5.47;;
23078;SDS011;11707;50.830;4.364;2023-03-19T02:15:27;6.38;;;5.10;;
23078;SDS011;11707;50.830;4.364;2023-03-19T02:17:53;9.77;;;6.28;;
23078;SDS011;11707;50.830;4.364;2023-03-19T02:28:11;9.77;;;6.82;;
23078;SDS011;11707;50.830;4.364;2023-03-19T02:30:40;13.13;;;7.28;;
23078;SDS011;11707;50.830;4.364;2023-03-19T02:33:10;9.02;;;7.00;;
23078;SDS011;11707;50.830;4.364;2023-03-19T02:35:37;9.57;;;6.78;;
23078;SDS011;11707;50.830;4.364;2023-03-19T02:38:04;11.30;;;7.03;;
23078;SDS011;11707;50.830;4.364;2023-03-19T02:40:33;10.00;;;7.93;;
23078;SDS011;11707;50.830;4.364;2023-03-19T02:43:02;8.13;;;6.82;;
23078;SDS011;11707;50.830;4.364;2023-03-19T02:45:29;10.60;;;7.78;;
23078;SDS011;11707;50.830;4.364;2023-03-19T02:47:56;11.00;;;7.53;;
23078;SDS011;11707;50.830;4.364;2023-03-19T02:50:22;11.38;;;8.18;;
23078;SDS011;11707;50.830;4.364;2023-03-19T02:52:50;12.00;;;8.98;;
23078;SDS011;11707;50.830;4.364;2023-03-19T02:55:16;14.07;;;9.10;;
23078;SDS011;11707;50.830;4.364;2023-03-19T02:57:45;13.57;;;8.63;;
23078;SDS011;11707;50.830;4.364;2023-03-19T03:00:11;10.95;;;8.38;;
23078;SDS011;11707;50.830;4.364;2023-03-19T03:02:40;9.43;;;8.35;;
23078;SDS011;11707;50.830;4.364;2023-03-19T03:05:05;12.15;;;9.25;;
23078;SDS011;11707;50.830;4.364;2023-03-19T03:07:33;11.60;;;8.85;;
23078;SDS011;11707;50.830;4.364;2023-03-19T03:09:58;13.85;;;9.40;;
23078;SDS011;11707;50.830;4.364;2023-03-19T03:12:24;13.60;;;8.85;;
23078;SDS011;11707;50.830;4.364;2023-03-19T03:14:51;15.27;;;9.18;;
23078;SDS011;11707;50.830;4.364;2023-03-19T03:17:16;14.05;;;9.38;;
23078;SDS011;11707;50.830;4.364;2023-03-19T03:19:43;14.57;;;10.10;;
23078;SDS011;11707;50.830;4.364;2023-03-19T03:22:08;11.85;;;10.13;;
23078;SDS011;11707;50.830;4.364;2023-03-19T03:24:34;13.43;;;10.23;;
23078;SDS011;11707;50.830;4.364;2023-03-19T03:27:00;14.50;;;9.93;;
23078;SDS011;11707;50.830;4.364;2023-03-19T03:29:26;14.35;;;10.30;;
23078;SDS011;11707;50.830;4.364;2023-03-19T03:31:52;14.82;;;10.73;;
23078;SDS011;11707;50.830;4.364;2023-03-19T03:34:18;14.95;;;10.43;;
23078;SDS011;11707;50.830;4.364;2023-03-19T03:36:43;16.75;;;9.93;;
23078;SDS011;11707;50.830;4.364;2023-03-19T03:39:11;14.82;;;10.77;;
23078;SDS011;11707;50.830;4.364;2023-03-19T03:41:37;17.27;;;11.45;;
23078;SDS011;11707;50.830;4.364;2023-03-19T03:44:03;14.25;;;9.85;;
23078;SDS011;11707;50.830;4.364;2023-03-19T03:46:29;16.05;;;11.27;;
23078;SDS011;11707;50.830;4.364;2023-03-19T03:48:55;15.45;;;11.65;;
23078;SDS011;11707;50.830;4.364;2023-03-19T03:51:20;16.75;;;11.60;;
23078;SDS011;11707;50.830;4.364;2023-03-19T03:53:46;17.02;;;11.40;;
23078;SDS011;11707;50.830;4.364;2023-03-19T03:56:12;20.95;;;12.75;;
23078;SDS011;11707;50.830;4.364;2023-03-19T03:58:38;19.10;;;13.68;;
23078;SDS011;11707;50.830;4.364;2023-03-19T04:01:04;19.33;;;14.48;;
23078;SDS011;11707;50.830;4.364;2023-03-19T04:03:31;19.15;;;13.85;;
23078;SDS011;11707;50.830;4.364;2023-03-19T04:05:57;20.95;;;13.88;;
23078;SDS011;11707;50.830;4.364;2023-03-19T04:08:22;20.60;;;12.82;;
23078;SDS011;11707;50.830;4.364;2023-03-19T04:10:50;18.00;;;11.35;;
23078;SDS011;11707;50.830;4.364;2023-03-19T04:13:16;14.68;;;11.07;;
23078;SDS011;11707;50.830;4.364;2023-03-19T04:15:42;14.32;;;10.07;;
23078;SDS011;11707;50.830;4.364;2023-03-19T04:18:07;13.23;;;9.60;;
23078;SDS011;11707;50.830;4.364;2023-03-19T04:20:33;11.63;;;8.63;;
23078;SDS011;11707;50.830;4.364;2023-03-19T04:22:59;12.90;;;9.50;;
23078;SDS011;11707;50.830;4.364;2023-03-19T04:25:26;12.80;;;10.15;;
23078;SDS011;11707;50.830;4.364;2023-03-19T04:27:51;14.95;;;11.10;;
23078;SDS011;11707;50.830;4.364;2023-03-19T04:30:17;13.38;;;10.23;;
23078;SDS011;11707;50.830;4.364;2023-03-19T04:32:43;14.32;;;10.65;;
23078;SDS011;11707;50.830;4.364;2023-03-19T04:35:10;15.45;;;11.48;;
23078;SDS011;11707;50.830;4.364;2023-03-19T04:37:36;13.88;;;11.65;;
23078;SDS011;11707;50.830;4.364;2023-03-19T04:40:02;15.50;;;11.43;;
23078;SDS011;11707;50.830;4.364;2023-03-19T04:42:28;17.65;;;12.48;;
23078;SDS011;11707;50.830;4.364;2023-03-19T04:44:54;15.48;;;12.70;;
23078;SDS011;11707;50.830;4.364;2023-03-19T04:47:20;16.33;;;12.85;;
23078;SDS011;11707;50.830;4.364;2023-03-19T04:49:45;19.75;;;12.52;;
23078;SDS011;11707;50.830;4.364;2023-03-19T04:52:11;18.45;;;13.32;;
23078;SDS011;11707;50.830;4.364;2023-03-19T04:54:37;16.02;;;13.15;;
23078;SDS011;11707;50.830;4.364;2023-03-19T04:57:03;15.93;;;12.73;;
23078;SDS011;11707;50.830;4.364;2023-03-19T04:59:28;15.77;;;12.18;;
23078;SDS011;11707;50.830;4.364;2023-03-19T05:01:54;13.05;;;10.63;;
23078;SDS011;11707;50.830;4.364;2023-03-19T05:04:20;12.57;;;10.05;;
23078;SDS011;11707;50.830;4.364;2023-03-19T05:06:47;16.25;;;11.15;;
23078;SDS011;11707;50.830;4.364;2023-03-19T05:09:16;16.23;;;12.07;;
23078;SDS011;11707;50.830;4.364;2023-03-19T05:11:42;19.20;;;13.25;;
23078;SDS011;11707;50.830;4.364;2023-03-19T05:14:10;18.73;;;12.10;;
23078;SDS011;11707;50.830;4.364;2023-03-19T05:16:36;17.65;;;12.45;;
23078;SDS011;11707;50.830;4.364;2023-03-19T05:19:05;15.40;;;11.57;;
23078;SDS011;11707;50.830;4.364;2023-03-19T05:21:31;17.08;;;12.30;;
23078;SDS011;11707;50.830;4.364;2023-03-19T05:23:59;16.52;;;10.55;;
23078;SDS011;11707;50.830;4.364;2023-03-19T05:26:24;13.63;;;10.55;;
23078;SDS011;11707;50.830;4.364;2023-03-19T05:28:50;13.88;;;10.65;;
23078;SDS011;11707;50.830;4.364;2023-03-19T05:31:16;14.73;;;9.63;;
23078;SDS011;11707;50.830;4.364;2023-03-19T05:33:42;22.52;;;9.88;;
23078;SDS011;11707;50.830;4.364;2023-03-19T05:36:07;17.38;;;9.40;;
23078;SDS011;11707;50.830;4.364;2023-03-19T05:38:33;13.43;;;8.80;;
23078;SDS011;11707;50.830;4.364;2023-03-19T05:41:03;18.77;;;8.43;;
23078;SDS011;11707;50.830;4.364;2023-03-19T05:43:30;9.88;;;7.43;;
23078;SDS011;11707;50.830;4.364;2023-03-19T05:45:58;12.85;;;8.75;;
23078;SDS011;11707;50.830;4.364;2023-03-19T05:48:24;13.05;;;7.82;;
23078;SDS011;11707;50.830;4.364;2023-03-19T05:50:50;11.40;;;7.68;;
23078;SDS011;11707;50.830;4.364;2023-03-19T05:53:17;13.48;;;7.80;;
23078;SDS011;11707;50.830;4.364;2023-03-19T05:55:43;13.02;;;7.85;;
23078;SDS011;11707;50.830;4.364;2023-03-19T05:58:11;13.50;;;6.93;;
23078;SDS011;11707;50.830;4.364;2023-03-19T06:00:36;9.43;;;6.60;;
23078;SDS011;11707;50.830;4.364;2023-03-19T06:03:02;11.93;;;6.80;;
23078;SDS011;11707;50.830;4.364;2023-03-19T06:05:28;8.55;;;6.07;;
23078;SDS011;11707;50.830;4.364;2023-03-19T06:07:54;9.07;;;5.50;;
23078;SDS011;11707;50.830;4.364;2023-03-19T06:10:20;11.77;;;5.35;;
23078;SDS011;11707;50.830;4.364;2023-03-19T06:12:48;11.38;;;6.07;;
23078;SDS011;11707;50.830;4.364;2023-03-19T06:15:14;9.68;;;5.38;;
23078;SDS011;11707;50.830;4.364;2023-03-19T06:17:40;11.95;;;5.63;;
23078;SDS011;11707;50.830;4.364;2023-03-19T06:20:08;9.73;;;6.03;;
23078;SDS011;11707;50.830;4.364;2023-03-19T06:22:38;12.70;;;5.60;;
23078;SDS011;11707;50.830;4.364;2023-03-19T06:25:04;17.10;;;6.32;;
23078;SDS011;11707;50.830;4.364;2023-03-19T06:27:32;9.80;;;5.88;;
23078;SDS011;11707;50.830;4.364;2023-03-19T06:29:58;10.18;;;6.28;;
23078;SDS011;11707;50.830;4.364;2023-03-19T06:32:24;12.73;;;6.15;;
23078;SDS011;11707;50.830;4.364;2023-03-19T06:34:52;9.75;;;6.00;;
23078;SDS011;11707;50.830;4.364;2023-03-19T06:37:20;12.65;;;6.25;;
23078;SDS011;11707;50.830;4.364;2023-03-19T06:39:50;9.60;;;5.70;;
23078;SDS011;11707;50.830;4.364;2023-03-19T06:42:18;13.80;;;5.68;;
23078;SDS011;11707;50.830;4.364;2023-03-19T06:44:45;10.15;;;5.70;;
23078;SDS011;11707;50.830;4.364;2023-03-19T06:47:11;11.93;;;6.65;;
23078;SDS011;11707;50.830;4.364;2023-03-19T06:49:38;14.63;;;6.32;;
23078;SDS011;11707;50.830;4.364;2023-03-19T06:52:05;12.13;;;5.63;;
23078;SDS011;11707;50.830;4.364;2023-03-19T06:54:31;16.77;;;6.35;;
23078;SDS011;11707;50.830;4.364;2023-03-19T06:57:00;8.93;;;5.40;;
23078;SDS011;11707;50.830;4.364;2023-03-19T06:59:26;12.13;;;5.78;;
23078;SDS011;11707;50.830;4.364;2023-03-19T07:01:51;13.98;;;5.38;;
23078;SDS011;11707;50.830;4.364;2023-03-19T07:04:17;16.17;;;5.53;;
23078;SDS011;11707;50.830;4.364;2023-03-19T07:06:45;13.25;;;5.82;;
23078;SDS011;11707;50.830;4.364;2023-03-19T07:09:14;11.38;;;5.90;;
23078;SDS011;11707;50.830;4.364;2023-03-19T07:11:40;12.38;;;5.20;;
23078;SDS011;11707;50.830;4.364;2023-03-19T07:14:06;13.50;;;5.75;;
23078;SDS011;11707;50.830;4.364;2023-03-19T07:16:34;12.15;;;4.82;;
23078;SDS011;11707;50.830;4.364;2023-03-19T07:18:59;10.43;;;5.82;;
23078;SDS011;11707;50.830;4.364;2023-03-19T07:21:28;12.00;;;6.13;;
23078;SDS011;11707;50.830;4.364;2023-03-19T07:23:56;12.57;;;6.07;;
23078;SDS011;11707;50.830;4.364;2023-03-19T07:26:21;11.95;;;5.75;;
23078;SDS011;11707;50.830;4.364;2023-03-19T07:28:47;12.80;;;6.47;;
23078;SDS011;11707;50.830;4.364;2023-03-19T07:31:20;14.23;;;7.25;;
23078;SDS011;11707;50.830;4.364;2023-03-19T07:33:46;13.68;;;6.63;;
23078;SDS011;11707;50.830;4.364;2023-03-19T07:36:15;13.00;;;6.78;;
23078;SDS011;11707;50.830;4.364;2023-03-19T07:38:41;20.08;;;7.65;;
23078;SDS011;11707;50.830;4.364;2023-03-19T07:41:06;13.20;;;6.03;;
23078;SDS011;11707;50.830;4.364;2023-03-19T07:43:32;13.05;;;5.82;;
23078;SDS011;11707;50.830;4.364;2023-03-19T07:45:58;15.35;;;5.82;;
23078;SDS011;11707;50.830;4.364;2023-03-19T07:48:24;17.67;;;6.10;;
23078;SDS011;11707;50.830;4.364;2023-03-19T07:50:51;17.27;;;6.07;;
23078;SDS011;11707;50.830;4.364;2023-03-19T07:53:22;14.05;;;5.88;;
23078;SDS011;11707;50.830;4.364;2023-03-19T07:55:47;17.90;;;7.18;;
23078;SDS011;11707;50.830;4.364;2023-03-19T07:58:13;25.45;;;6.78;;
23078;SDS011;11707;50.830;4.364;2023-03-19T08:00:39;12.05;;;5.90;;
23078;SDS011;11707;50.830;4.364;2023-03-19T08:03:05;20.90;;;5.80;;
23078;SDS011;11707;50.830;4.364;2023-03-19T08:05:31;15.07;;;5.97;;
23078;SDS011;11707;50.830;4.364;2023-03-19T08:07:57;13.10;;;6.32;;
23078;SDS011;11707;50.830;4.364;2023-03-19T08:10:23;14.93;;;5.43;;
23078;SDS011;11707;50.830;4.364;2023-03-19T08:12:48;16.88;;;5.68;;
23078;SDS011;11707;50.830;4.364;2023-03-19T08:15:14;13.43;;;5.40;;
23078;SDS011;11707;50.830;4.364;2023-03-19T08:17:40;9.00;;;4.60;;
23078;SDS011;11707;50.830;4.364;2023-03-19T08:20:09;13.70;;;5.03;;
23078;SDS011;11707;50.830;4.364;2023-03-19T08:22:37;10.32;;;4.95;;
23078;SDS011;11707;50.830;4.364;2023-03-19T08:25:04;12.63;;;5.15;;
23078;SDS011;11707;50.830;4.364;2023-03-19T08:27:31;14.48;;;4.75;;
23078;SDS011;11707;50.830;4.364;2023-03-19T08:29:59;12.82;;;4.50;;
23078;SDS011;11707;50.830;4.364;2023-03-19T08:32:26;18.88;;;5.15;;
23078;SDS011;11707;50.830;4.364;2023-03-19T08:34:54;14.98;;;4.03;;
23078;SDS011;11707;50.830;4.364;2023-03-19T08:37:20;17.15;;;5.25;;
23078;SDS011;11707;50.830;4.364;2023-03-19T08:39:45;14.65;;;4.50;;
23078;SDS011;11707;50.830;4.364;2023-03-19T08:42:13;16.10;;;4.78;;
23078;SDS011;11707;50.830;4.364;2023-03-19T08:44:42;14.40;;;4.63;;
23078;SDS011;11707;50.830;4.364;2023-03-19T08:47:10;14.57;;;4.82;;
23078;SDS011;11707;50.830;4.364;2023-03-19T08:49:36;12.48;;;4.38;;
23078;SDS011;11707;50.830;4.364;2023-03-19T08:52:02;14.38;;;4.95;;
23078;SDS011;11707;50.830;4.364;2023-03-19T08:54:29;14.32;;;4.05;;
23078;SDS011;11707;50.830;4.364;2023-03-19T08:56:54;17.35;;;4.28;;
23078;SDS011;11707;50.830;4.364;2023-03-19T08:59:20;15.75;;;4.30;;
23078;SDS011;11707;50.830;4.364;2023-03-19T09:01:49;10.15;;;4.45;;
23078;SDS011;11707;50.830;4.364;2023-03-19T09:04:18;9.60;;;4.22;;
23078;SDS011;11707;50.830;4.364;2023-03-19T09:06:46;14.77;;;3.85;;
23078;SDS011;11707;50.830;4.364;2023-03-19T09:09:15;12.02;;;3.85;;
23078;SDS011;11707;50.830;4.364;2023-03-19T09:11:45;13.07;;;3.58;;
23078;SDS011;11707;50.830;4.364;2023-03-19T09:14:11;17.70;;;4.35;;
23078;SDS011;11707;50.830;4.364;2023-03-19T09:16:38;13.27;;;4.22;;
23078;SDS011;11707;50.830;4.364;2023-03-19T09:19:04;13.57;;;4.18;;
23078;SDS011;11707;50.830;4.364;2023-03-19T09:21:30;13.60;;;4.43;;
23078;SDS011;11707;50.830;4.364;2023-03-19T09:23:56;10.27;;;3.67;;
23078;SDS011;11707;50.830;4.364;2023-03-19T09:26:22;19.90;;;5.22;;
23078;SDS011;11707;50.830;4.364;2023-03-19T09:28:48;13.63;;;3.92;;
23078;SDS011;11707;50.830;4.364;2023-03-19T09:31:16;13.55;;;4.22;;
23078;SDS011;11707;50.830;4.364;2023-03-19T09:33:41;17.17;;;5.40;;
23078;SDS011;11707;50.830;4.364;2023-03-19T09:36:07;16.38;;;4.28;;
23078;SDS011;11707;50.830;4.364;2023-03-19T09:38:33;18.20;;;5.85;;
23078;SDS011;11707;50.830;4.364;2023-03-19T09:41:06;13.38;;;4.88;;
23078;SDS011;11707;50.830;4.364;2023-03-19T09:46:37;11.73;;;5.05;;
23078;SDS011;11707;50.830;4.364;2023-03-19T09:54:30;16.45;;;5.72;;
23078;SDS011;11707;50.830;4.364;2023-03-19T09:57:06;13.30;;;4.65;;
23078;SDS011;11707;50.830;4.364;2023-03-19T09:59:33;17.05;;;5.18;;
23078;SDS011;11707;50.830;4.364;2023-03-19T10:02:23;11.70;;;4.15;;
23078;SDS011;11707;50.830;4.364;2023-03-19T10:04:59;14.30;;;5.00;;
23078;SDS011;11707;50.830;4.364;2023-03-19T10:07:57;13.35;;;4.43;;
23078;SDS011;11707;50.830;4.364;2023-03-19T10:15:46;10.45;;;4.93;;
23078;SDS011;11707;50.830;4.364;2023-03-19T10:20:52;16.20;;;4.03;;
23078;SDS011;11707;50.830;4.364;2023-03-19T10:23:47;15.00;;;5.03;;
23078;SDS011;11707;50.830;4.364;2023-03-19T10:26:20;17.02;;;5.43;;
23078;SDS011;11707;50.830;4.364;2023-03-19T10:36:50;11.50;;;4.97;;
23078;SDS011;11707;50.830;4.364;2023-03-19T10:39:33;19.95;;;5.85;;
23078;SDS011;11707;50.830;4.364;2023-03-19T10:44:47;12.45;;;5.43;;
23078;SDS011;11707;50.830;4.364;2023-03-19T10:47:14;14.35;;;6.03;;
23078;SDS011;11707;50.830;4.364;2023-03-19T10:49:41;20.50;;;5.82;;
23078;SDS011;11707;50.830;4.364;2023-03-19T10:52:15;12.25;;;5.22;;
23078;SDS011;11707;50.830;4.364;2023-03-19T10:54:45;16.67;;;5.93;;
23078;SDS011;11707;50.830;4.364;2023-03-19T10:58:14;16.40;;;6.05;;
23078;SDS011;11707;50.830;4.364;2023-03-19T11:00:18;12.07;;;5.72;;
23078;SDS011;11707;50.830;4.364;2023-03-19T11:02:48;12.35;;;5.50;;
23078;SDS011;11707;50.830;4.364;2023-03-19T11:10:26;13.93;;;5.93;;
23078;SDS011;11707;50.830;4.364;2023-03-19T11:12:57;18.02;;;7.28;;
23078;SDS011;11707;50.830;4.364;2023-03-19T11:15:30;14.23;;;6.45;;
23078;SDS011;11707;50.830;4.364;2023-03-19T11:18:00;16.42;;;7.72;;
23078;SDS011;11707;50.830;4.364;2023-03-19T11:20:33;12.50;;;7.47;;
23078;SDS011;11707;50.830;4.364;2023-03-19T11:23:01;14.25;;;7.07;;
23078;SDS011;11707;50.830;4.364;2023-03-19T11:25:53;16.95;;;6.97;;
23078;SDS011;11707;50.830;4.364;2023-03-19T11:28:23;13.35;;;7.88;;
23078;SDS011;11707;50.830;4.364;2023-03-19T11:36:30;11.20;;;6.22;;
23078;SDS011;11707;50.830;4.364;2023-03-19T11:53:35;12.77;;;6.70;;
23078;SDS011;11707;50.830;4.364;2023-03-19T11:56:26;12.13;;;6.40;;
23078;SDS011;11707;50.830;4.364;2023-03-19T12:01:42;9.90;;;6.53;;
23078;SDS011;11707;50.830;4.364;2023-03-19T12:10:24;18.38;;;8.38;;
23078;SDS011;11707;50.830;4.364;2023-03-19T12:26:12;17.52;;;10.23;;
23078;SDS011;11707;50.830;4.364;2023-03-19T12:28:49;13.55;;;7.93;;
23078;SDS011;11707;50.830;4.364;2023-03-19T12:36:34;13.77;;;8.75;;
23078;SDS011;11707;50.830;4.364;2023-03-19T12:39:14;16.83;;;9.38;;
23078;SDS011;11707;50.830;4.364;2023-03-19T12:41:45;17.15;;;9.45;;
23078;SDS011;11707;50.830;4.364;2023-03-19T12:44:18;19.45;;;11.35;;
23078;SDS011;11707;50.830;4.364;2023-03-19T12:47:17;17.88;;;9.23;;
23078;SDS011;11707;50.830;4.364;2023-03-19T12:49:45;19.08;;;8.98;;
23078;SDS011;11707;50.830;4.364;2023-03-19T12:55:05;8.00;;;4.93;;
23078;SDS011;11707;50.830;4.364;2023-03-19T13:05:49;11.27;;;7.50;;
23078;SDS011;11707;50.830;4.364;2023-03-19T13:11:37;17.25;;;9.00;;
23078;SDS011;11707;50.830;4.364;2023-03-19T13:14:15;18.65;;;10.30;;
23078;SDS011;11707;50.830;4.364;2023-03-19T13:16:56;16.90;;;10.20;;
23078;SDS011;11707;50.830;4.364;2023-03-19T13:22:13;14.07;;;9.82;;
23078;SDS011;11707;50.830;4.364;2023-03-19T13:24:43;18.20;;;10.77;;
23078;SDS011;11707;50.830;4.364;2023-03-19T13:27:13;20.10;;;12.13;;
23078;SDS011;11707;50.830;4.364;2023-03-19T13:32:48;22.67;;;11.63;;
23078;SDS011;11707;50.830;4.364;2023-03-19T13:38:16;13.13;;;9.10;;
23078;SDS011;11707;50.830;4.364;2023-03-19T13:40:59;15.75;;;9.73;;
23078;SDS011;11707;50.830;4.364;2023-03-19T13:53:40;8.48;;;5.75;;
23078;SDS011;11707;50.830;4.364;2023-03-19T13:56:17;9.55;;;5.72;;
23078;SDS011;11707;50.830;4.364;2023-03-19T13:59:26;6.32;;;4.68;;
23078;SDS011;11707;50.830;4.364;2023-03-19T14:01:39;10.73;;;6.00;;
23078;SDS011;11707;50.830;4.364;2023-03-19T14:04:16;10.18;;;6.22;;
23078;SDS011;11707;50.830;4.364;2023-03-19T14:06:44;11.52;;;6.65;;
23078;SDS011;11707;50.830;4.364;2023-03-19T14:12:18;10.20;;;5.97;;
23078;SDS011;11707;50.830;4.364;2023-03-19T14:14:51;8.98;;;6.05;;
23078;SDS011;11707;50.830;4.364;2023-03-19T14:19:51;8.52;;;6.40;;
23078;SDS011;11707;50.830;4.364;2023-03-19T14:22:19;9.98;;;6.18;;
23078;SDS011;11707;50.830;4.364;2023-03-19T14:25:19;9.82;;;6.50;;
23078;SDS011;11707;50.830;4.364;2023-03-19T14:27:46;9.77;;;6.55;;
23078;SDS011;11707;50.830;4.364;2023-03-19T14:30:19;9.13;;;6.70;;
23078;SDS011;11707;50.830;4.364;2023-03-19T14:32:45;10.68;;;6.88;;
23078;SDS011;11707;50.830;4.364;2023-03-19T14:35:16;11.43;;;6.65;;
23078;SDS011;11707;50.830;4.364;2023-03-19T14:37:48;11.43;;;5.82;;
23078;SDS011;11707;50.830;4.364;2023-03-19T14:40:42;9.52;;;6.90;;
23078;SDS011;11707;50.830;4.364;2023-03-19T14:52:29;10.43;;;5.75;;
23078;SDS011;11707;50.830;4.364;2023-03-19T14:54:59;11.93;;;6.63;;
23078;SDS011;11707;50.830;4.364;2023-03-19T14:57:27;9.20;;;5.57;;
23078;SDS011;11707;50.830;4.364;2023-03-19T14:59:55;7.78;;;5.10;;
23078;SDS011;11707;50.830;4.364;2023-03-19T15:05:23;9.30;;;5.05;;
23078;SDS011;11707;50.830;4.364;2023-03-19T15:07:55;11.23;;;5.55;;
23078;SDS011;11707;50.830;4.364;2023-03-19T15:10:28;8.18;;;5.07;;
23078;SDS011;11707;50.830;4.364;2023-03-19T15:13:12;5.85;;;4.47;;
23078;SDS011;11707;50.830;4.364;2023-03-19T15:16:09;7.00;;;4.13;;
23078;SDS011;11707;50.830;4.364;2023-03-19T15:18:41;6.85;;;3.40;;
23078;SDS011;11707;50.830;4.364;2023-03-19T15:21:07;6.50;;;3.58;;
23078;SDS011;11707;50.830;4.364;2023-03-19T15:23:40;7.82;;;3.17;;
23078;SDS011;11707;50.830;4.364;2023-03-19T15:26:12;6.75;;;3.10;;
23078;SDS011;11707;50.830;4.364;2023-03-19T15:28:46;8.35;;;4.03;;
23078;SDS011;11707;50.830;4.364;2023-03-19T15:31:17;10.45;;;3.70;;
23078;SDS011;11707;50.830;4.364;2023-03-19T15:33:43;5.15;;;3.28;;
23078;SDS011;11707;50.830;4.364;2023-03-19T15:41:24;10.32;;;4.40;;
23078;SDS011;11707;50.830;4.364;2023-03-19T15:43:54;6.95;;;3.88;;
23078;SDS011;11707;50.830;4.364;2023-03-19T15:46:22;7.95;;;4.22;;
23078;SDS011;11707;50.830;4.364;2023-03-19T15:48:56;7.72;;;3.75;;
23078;SDS011;11707;50.830;4.364;2023-03-19T15:51:29;11.40;;;5.25;;
23078;SDS011;11707;50.830;4.364;2023-03-19T15:53:58;9.70;;;4.78;;
23078;SDS011;11707;50.830;4.364;2023-03-19T15:56:25;7.20;;;4.55;;
23078;SDS011;11707;50.830;4.364;2023-03-19T15:58:51;10.20;;;4.35;;
23078;SDS011;11707;50.830;4.364;2023-03-19T16:01:21;9.18;;;5.32;;
23078;SDS011;11707;50.830;4.364;2023-03-19T16:03:54;8.38;;;4.43;;
23078;SDS011;11707;50.830;4.364;2023-03-19T16:08:54;10.45;;;5.82;;
23078;SDS011;11707;50.830;4.364;2023-03-19T16:11:34;8.38;;;6.05;;
23078;SDS011;11707;50.830;4.364;2023-03-19T16:16:46;11.25;;;6.00;;
23078;SDS011;11707;50.830;4.364;2023-03-19T16:22:16;8.27;;;5.93;;
23078;SDS011;11707;50.830;4.364;2023-03-19T16:24:52;12.15;;;6.25;;
23078;SDS011;11707;50.830;4.364;2023-03-19T16:27:33;8.88;;;5.75;;
23078;SDS011;11707;50.830;4.364;2023-03-19T16:30:00;12.25;;;6.63;;
23078;SDS011;11707;50.830;4.364;2023-03-19T16:32:34;13.30;;;6.88;;
23078;SDS011;11707;50.830;4.364;2023-03-19T16:35:13;10.48;;;5.93;;
23078;SDS011;11707;50.830;4.364;2023-03-19T16:37:44;10.77;;;6.72;;
23078;SDS011;11707;50.830;4.364;2023-03-19T16:45:19;15.35;;;6.93;;
23078;SDS011;11707;50.830;4.364;2023-03-19T16:47:53;16.85;;;6.95;;
23078;SDS011;11707;50.830;4.364;2023-03-19T16:50:21;12.82;;;7.05;;
23078;SDS011;11707;50.830;4.364;2023-03-19T16:53:01;11.38;;;5.88;;
23078;SDS011;11707;50.830;4.364;2023-03-19T16:55:35;14.70;;;6.57;;
23078;SDS011;11707;50.830;4.364;2023-03-19T16:58:02;7.97;;;5.38;;
23078;SDS011;11707;50.830;4.364;2023-03-19T17:00:36;10.27;;;4.68;;
23078;SDS011;11707;50.830;4.364;2023-03-19T17:03:15;6.25;;;4.45;;
23078;SDS011;11707;50.830;4.364;2023-03-19T17:05:42;7.68;;;4.43;;
23078;SDS011;11707;50.830;4.364;2023-03-19T17:08:11;8.20;;;4.72;;
23078;SDS011;11707;50.830;4.364;2023-03-19T17:10:42;9.27;;;6.30;;
23078;SDS011;11707;50.830;4.364;2023-03-19T17:13:26;10.80;;;4.32;;
23078;SDS011;11707;50.830;4.364;2023-03-19T17:15:55;12.02;;;6.93;;
23078;SDS011;11707;50.830;4.364;2023-03-19T17:18:27;7.80;;;4.80;;
23078;SDS011;11707;50.830;4.364;2023-03-19T17:23:44;6.75;;;4.18;;
23078;SDS011;11707;50.830;4.364;2023-03-19T17:26:14;16.38;;;8.10;;